Time;durP1;ratioP1;P1;durP2;ratioP2;P2;SDS_P1;SDS_P2;PMS_P1;PMS_P2;Temp;Humidity;BMP_temperature;BMP_pressure;BME280_temperature;BME280_humidity;BME280_pressure;Samples;Min_cycle;Max_cycle;Signal;HPM_P1;HPM_P2
2021/08/14 00:02:00;;;;;;;6.78;4.70;;;23.70;99.90;;;;;;5030012;28;20220;-70
2021/08/14 00:04:26;;;;;;;5.90;4.78;;;23.70;99.90;;;;;;5029493;28;20255;-71
2021/08/14 00:06:53;;;;;;;5.78;5.22;;;23.70;99.90;;;;;;5030041;28;20579;-71
2021/08/14 00:09:20;;;;;;;5.80;5.03;;;23.50;99.90;;;;;;5030045;28;20256;-72
2021/08/14 00:11:47;;;;;;;5.40;4.90;;;23.20;99.90;;;;;;5030000;28;20283;-71
2021/08/14 00:14:14;;;;;;;6.43;5.32;;;23.20;99.90;;;;;;5030276;28;20205;-72
2021/08/14 00:16:41;;;;;;;7.50;4.88;;;23.10;99.90;;;;;;5029901;28;20209;-72
2021/08/14 00:19:07;;;;;;;4.70;4.30;;;23.10;99.90;;;;;;5029735;28;21006;-72
2021/08/14 00:21:34;;;;;;;5.47;4.97;;;22.90;99.90;;;;;;5029817;28;20255;-72
2021/08/14 00:24:01;;;;;;;4.55;4.25;;;22.60;99.90;;;;;;5029950;28;20316;-72
2021/08/14 00:26:28;;;;;;;4.70;4.15;;;22.50;99.90;;;;;;5030103;28;20209;-73
2021/08/14 00:28:56;;;;;;;5.28;4.78;;;22.40;99.90;;;;;;5029924;28;20267;-73
2021/08/14 00:31:22;;;;;;;4.93;4.13;;;22.50;99.90;;;;;;5029847;28;20240;-72
2021/08/14 00:33:49;;;;;;;4.22;3.83;;;22.50;99.90;;;;;;5029564;28;20221;-72
2021/08/14 00:36:16;;;;;;;4.93;4.30;;;22.50;99.90;;;;;;5029754;28;20263;-72
2021/08/14 00:38:43;;;;;;;4.22;3.80;;;22.50;99.90;;;;;;5029418;28;20211;-72
2021/08/14 00:41:09;;;;;;;4.75;4.25;;;22.70;99.90;;;;;;5029799;28;20268;-71
2021/08/14 00:43:36;;;;;;;4.18;3.88;;;22.50;99.90;;;;;;5029487;28;20628;-71
2021/08/14 00:46:04;;;;;;;4.40;3.88;;;22.50;99.90;;;;;;5029175;28;20990;-71
2021/08/14 00:48:31;;;;;;;4.30;4.00;;;22.70;99.90;;;;;;5029280;28;20229;-71
2021/08/14 00:50:58;;;;;;;4.63;4.00;;;22.80;99.90;;;;;;5028851;28;20212;-71
2021/08/14 00:53:25;;;;;;;4.43;3.97;;;22.80;99.90;;;;;;5028831;28;20217;-71
2021/08/14 00:55:54;;;;;;;4.82;3.83;;;22.90;99.90;;;;;;5028724;28;20700;-71
2021/08/14 00:58:21;;;;;;;4.85;4.32;;;23.00;99.90;;;;;;5028781;28;20204;-71
2021/08/14 01:00:48;;;;;;;5.80;4.22;;;22.90;99.90;;;;;;5028895;28;20271;-71
2021/08/14 01:03:16;;;;;;;4.10;3.80;;;22.80;99.90;;;;;;5028955;28;20240;-71
2021/08/14 01:05:44;;;;;;;4.32;4.03;;;22.80;99.90;;;;;;5028703;28;20251;-71
2021/08/14 01:08:10;;;;;;;7.65;4.13;;;22.80;99.90;;;;;;5029034;28;20255;-71
2021/08/14 01:10:37;;;;;;;6.78;4.38;;;22.80;99.90;;;;;;5028638;28;20235;-71
2021/08/14 01:13:04;;;;;;;4.45;4.07;;;22.80;99.90;;;;;;5028687;28;20224;-71
2021/08/14 01:15:30;;;;;;;9.35;4.25;;;22.80;99.90;;;;;;5028165;28;20205;-71
2021/08/14 01:17:58;;;;;;;4.75;4.00;;;22.90;99.90;;;;;;5028674;28;20258;-71
2021/08/14 01:20:26;;;;;;;5.68;3.97;;;22.90;99.90;;;;;;5028485;28;20233;-71
2021/08/14 01:22:53;;;;;;;4.07;3.70;;;22.90;99.90;;;;;;5028249;28;20556;-71
2021/08/14 01:25:22;;;;;;;5.82;3.95;;;22.90;99.90;;;;;;5028716;28;20204;-71
2021/08/14 01:27:50;;;;;;;6.13;3.75;;;22.80;99.90;;;;;;5028429;28;20236;-71
2021/08/14 01:30:17;;;;;;;4.57;4.20;;;22.80;99.90;;;;;;5028319;28;20616;-72
2021/08/14 01:32:43;;;;;;;6.75;4.00;;;22.80;99.90;;;;;;5028359;28;20617;-71
2021/08/14 01:35:11;;;;;;;4.00;3.70;;;22.40;99.90;;;;;;5028482;28;20205;-71
2021/08/14 01:37:37;;;;;;;6.07;3.83;;;22.30;99.90;;;;;;5028490;28;20204;-71
2021/08/14 01:40:05;;;;;;;4.03;3.72;;;22.30;99.90;;;;;;5028530;28;20235;-71
2021/08/14 01:42:32;;;;;;;5.07;3.70;;;22.40;99.90;;;;;;5028172;28;20691;-71
2021/08/14 01:44:59;;;;;;;6.72;4.38;;;22.40;99.90;;;;;;5028436;28;20240;-71
2021/08/14 01:47:26;;;;;;;4.03;3.65;;;22.40;99.90;;;;;;5028312;28;20232;-71
2021/08/14 01:49:53;;;;;;;4.45;4.05;;;22.40;99.90;;;;;;5028034;28;20266;-71
2021/08/14 01:52:20;;;;;;;8.68;4.20;;;22.40;99.90;;;;;;5028349;28;20270;-71
2021/08/14 01:54:47;;;;;;;6.05;4.32;;;22.40;99.90;;;;;;5028187;28;20240;-71
2021/08/14 01:57:16;;;;;;;5.80;3.92;;;22.40;99.90;;;;;;5028790;28;20232;-71
2021/08/14 01:59:42;;;;;;;6.15;4.32;;;22.40;99.90;;;;;;5027927;28;20707;-71
2021/08/14 02:02:11;;;;;;;5.00;4.03;;;22.40;99.90;;;;;;5028480;28;20213;-71
2021/08/14 02:04:37;;;;;;;3.90;3.60;;;22.30;99.90;;;;;;5028053;28;20656;-71
2021/08/14 02:07:04;;;;;;;6.50;4.07;;;22.30;99.90;;;;;;5030938;28;20263;-71
2021/08/14 02:09:31;;;;;;;4.00;3.60;;;22.30;99.90;;;;;;5032072;28;20260;-71
2021/08/14 02:11:57;;;;;;;5.22;4.20;;;22.20;99.90;;;;;;5032421;28;20302;-72
2021/08/14 02:14:24;;;;;;;4.13;3.83;;;22.20;99.90;;;;;;5032605;28;20201;-72
2021/08/14 02:16:51;;;;;;;4.70;4.18;;;22.20;99.90;;;;;;5032348;28;20274;-71
2021/08/14 02:19:18;;;;;;;5.50;4.15;;;22.10;99.90;;;;;;5032354;28;20248;-71
2021/08/14 02:21:45;;;;;;;5.07;4.03;;;22.10;99.90;;;;;;5032280;28;20270;-71
2021/08/14 02:24:12;;;;;;;4.15;3.85;;;22.10;99.90;;;;;;5032356;28;20209;-72
2021/08/14 02:26:38;;;;;;;3.60;3.30;;;22.10;99.90;;;;;;5032193;28;20236;-72
2021/08/14 02:29:05;;;;;;;5.40;3.80;;;22.10;99.90;;;;;;5031856;28;20679;-71
2021/08/14 02:31:32;;;;;;;4.10;3.67;;;22.10;99.90;;;;;;5031856;28;20266;-71
2021/08/14 02:33:58;;;;;;;4.00;3.60;;;22.00;99.90;;;;;;5032018;28;20282;-71
2021/08/14 02:36:26;;;;;;;4.57;4.10;;;22.00;99.90;;;;;;5032004;28;20212;-71
2021/08/14 02:38:53;;;;;;;5.22;3.90;;;22.00;99.90;;;;;;5031673;28;20216;-71
2021/08/14 02:41:19;;;;;;;5.07;3.78;;;22.00;99.90;;;;;;5031908;28;20275;-71
2021/08/14 02:43:46;;;;;;;4.28;3.53;;;22.00;99.90;;;;;;5031574;28;20205;-71
2021/08/14 02:46:13;;;;;;;7.00;4.15;;;21.90;99.90;;;;;;5031920;28;20201;-71
2021/08/14 02:48:39;;;;;;;4.10;3.65;;;21.90;99.90;;;;;;5031863;28;20208;-71
2021/08/14 02:51:06;;;;;;;3.70;3.40;;;21.90;99.90;;;;;;5031840;28;20209;-71
2021/08/14 02:53:34;;;;;;;3.80;3.20;;;21.90;99.90;;;;;;5031691;28;20232;-71
2021/08/14 02:56:00;;;;;;;8.00;3.92;;;21.90;99.90;;;;;;5031692;28;20494;-71
2021/08/14 02:58:28;;;;;;;4.40;3.97;;;21.90;99.90;;;;;;5030963;28;20241;-71
2021/08/14 03:00:55;;;;;;;4.78;3.75;;;21.80;99.90;;;;;;5031198;28;20231;-71
2021/08/14 03:03:22;;;;;;;6.78;3.88;;;21.80;99.90;;;;;;5030154;28;20237;-71
2021/08/14 03:05:48;;;;;;;5.00;4.18;;;21.80;99.90;;;;;;5029855;28;20201;-70
2021/08/14 03:08:15;;;;;;;4.93;3.27;;;21.70;99.90;;;;;;5029991;28;20209;-71
2021/08/14 03:10:44;;;;;;;4.82;3.45;;;21.70;99.90;;;;;;5029616;28;20205;-70
2021/08/14 03:13:12;;;;;;;4.53;3.60;;;21.70;99.90;;;;;;5029822;28;20238;-71
2021/08/14 03:15:39;;;;;;;4.50;3.72;;;21.80;99.90;;;;;;5029737;28;20282;-70
2021/08/14 03:18:05;;;;;;;7.00;3.72;;;21.70;99.90;;;;;;5029531;28;20216;-71
2021/08/14 03:20:32;;;;;;;4.47;3.70;;;21.70;99.90;;;;;;5029740;28;20244;-71
2021/08/14 03:22:59;;;;;;;8.55;4.20;;;21.70;99.90;;;;;;5029376;28;20837;-71
2021/08/14 03:25:26;;;;;;;7.97;3.70;;;21.70;99.90;;;;;;5029836;28;20263;-71
2021/08/14 03:27:54;;;;;;;5.07;3.35;;;21.70;99.90;;;;;;5029511;28;21029;-71
2021/08/14 03:30:21;;;;;;;5.22;4.05;;;21.70;99.90;;;;;;5030070;28;20220;-71
2021/08/14 03:32:47;;;;;;;6.82;3.92;;;21.70;99.90;;;;;;5029656;28;20201;-71
2021/08/14 03:35:15;;;;;;;4.55;3.67;;;21.60;99.90;;;;;;5029791;28;20263;-71
2021/08/14 03:37:42;;;;;;;4.88;4.13;;;21.60;99.90;;;;;;5029753;28;20233;-71
2021/08/14 03:40:11;;;;;;;6.40;3.65;;;21.60;99.90;;;;;;5029664;28;20325;-71
2021/08/14 03:42:38;;;;;;;6.40;3.60;;;21.60;99.90;;;;;;5029594;28;20351;-71
2021/08/14 03:45:07;;;;;;;5.60;3.45;;;21.60;99.90;;;;;;5029364;28;20208;-72
2021/08/14 03:47:33;;;;;;;5.17;3.60;;;21.60;99.90;;;;;;5029228;28;20658;-71
2021/08/14 03:50:00;;;;;;;5.65;3.75;;;21.60;99.90;;;;;;5029022;28;20271;-71
2021/08/14 03:52:27;;;;;;;6.93;3.50;;;21.60;99.90;;;;;;5029158;28;20213;-71
2021/08/14 03:54:53;;;;;;;8.25;3.83;;;21.60;99.90;;;;;;5029047;28;20205;-71
2021/08/14 03:57:20;;;;;;;6.13;3.67;;;21.60;99.90;;;;;;5029248;28;20241;-71
2021/08/14 03:59:46;;;;;;;4.10;3.70;;;21.60;99.90;;;;;;4994226;28;1017265;-71
2021/08/14 04:02:15;;;;;;;6.68;3.65;;;21.40;99.90;;;;;;5030241;28;20240;-71
2021/08/14 04:04:41;;;;;;;6.20;3.70;;;21.30;99.90;;;;;;5030035;28;20247;-71
2021/08/14 04:07:08;;;;;;;7.95;3.63;;;21.30;99.90;;;;;;5029828;28;20683;-71
2021/08/14 04:09:34;;;;;;;5.80;3.90;;;21.30;99.90;;;;;;5030092;28;20232;-71
2021/08/14 04:12:01;;;;;;;8.23;3.67;;;21.30;99.90;;;;;;5029830;28;20373;-71
2021/08/14 04:14:28;;;;;;;6.10;3.50;;;21.30;99.90;;;;;;5029697;28;20717;-71
2021/08/14 04:16:54;;;;;;;5.03;3.33;;;21.30;99.90;;;;;;5029699;28;20241;-71
2021/08/14 04:19:22;;;;;;;6.87;3.57;;;21.30;99.90;;;;;;5029841;28;20212;-71
2021/08/14 04:21:49;;;;;;;5.33;3.70;;;21.30;99.90;;;;;;5029686;28;20789;-72
2021/08/14 04:24:16;;;;;;;4.97;3.42;;;21.30;99.90;;;;;;5030015;28;20258;-72
2021/08/14 04:26:42;;;;;;;5.75;4.03;;;21.30;99.90;;;;;;5029872;28;20542;-72
2021/08/14 04:29:09;;;;;;;6.07;3.97;;;21.30;99.90;;;;;;5029001;28;20209;-72
2021/08/14 04:31:36;;;;;;;4.72;4.18;;;21.30;99.90;;;;;;5029705;28;20213;-72
2021/08/14 04:34:02;;;;;;;6.35;3.92;;;21.30;99.90;;;;;;5029284;28;20216;-71
2021/08/14 04:36:30;;;;;;;4.53;3.50;;;21.30;99.90;;;;;;5029136;28;20205;-72
2021/08/14 04:38:57;;;;;;;5.13;3.70;;;21.30;99.90;;;;;;5029533;28;20664;-72
2021/08/14 04:41:24;;;;;;;4.20;3.80;;;21.30;99.90;;;;;;5029186;28;20290;-70
2021/08/14 04:43:50;;;;;;;4.10;3.70;;;21.30;99.90;;;;;;5029262;28;20205;-70
2021/08/14 04:46:17;;;;;;;5.53;4.10;;;21.30;99.90;;;;;;5029302;28;20237;-70
2021/08/14 04:48:44;;;;;;;5.00;4.05;;;21.30;99.90;;;;;;5029170;28;20254;-70
2021/08/14 04:51:10;;;;;;;4.88;3.90;;;21.20;99.90;;;;;;5029157;28;20251;-70
2021/08/14 04:53:38;;;;;;;6.50;4.30;;;21.20;99.90;;;;;;5029196;28;20584;-72
2021/08/14 04:56:05;;;;;;;5.50;4.13;;;21.20;99.90;;;;;;5028875;28;20251;-72
2021/08/14 04:58:32;;;;;;;4.05;3.63;;;21.20;99.90;;;;;;5029001;28;20233;-72
2021/08/14 05:00:59;;;;;;;6.17;3.90;;;21.20;99.90;;;;;;5029228;28;20225;-72
2021/08/14 05:03:25;;;;;;;6.27;4.10;;;21.10;99.90;;;;;;5029221;28;20205;-72
2021/08/14 05:05:52;;;;;;;5.40;3.90;;;21.10;99.90;;;;;;5028793;28;20713;-72
2021/08/14 05:08:18;;;;;;;6.45;4.10;;;21.10;99.90;;;;;;5029082;28;20232;-70
2021/08/14 05:10:46;;;;;;;5.35;3.90;;;21.10;99.90;;;;;;5028772;28;20359;-70
2021/08/14 05:13:13;;;;;;;4.55;3.95;;;21.20;99.90;;;;;;5028946;28;20241;-71
2021/08/14 05:15:42;;;;;;;4.20;3.73;;;21.10;99.90;;;;;;5028805;28;20211;-71
2021/08/14 05:18:09;;;;;;;8.17;4.07;;;21.00;99.90;;;;;;5028634;28;20200;-70
2021/08/14 05:20:35;;;;;;;4.10;3.70;;;21.10;99.90;;;;;;5028559;28;20228;-71
2021/08/14 05:23:02;;;;;;;4.33;3.90;;;21.10;99.90;;;;;;5028898;28;20206;-71
2021/08/14 05:25:32;;;;;;;4.17;3.73;;;21.10;99.90;;;;;;5028897;28;20205;-69
2021/08/14 05:28:00;;;;;;;4.80;4.33;;;21.00;99.90;;;;;;5028673;28;20304;-70
2021/08/14 05:30:27;;;;;;;8.97;4.43;;;20.70;99.90;;;;;;5028668;28;20207;-70
2021/08/14 05:32:54;;;;;;;12.43;4.40;;;20.70;99.90;;;;;;5028599;28;20290;-71
2021/08/14 05:35:20;;;;;;;5.00;3.80;;;20.80;99.90;;;;;;5028433;28;20270;-71
2021/08/14 05:37:47;;;;;;;5.93;4.23;;;20.70;99.90;;;;;;5028592;28;20334;-71
2021/08/14 05:40:14;;;;;;;4.03;3.63;;;20.50;99.90;;;;;;5028391;28;20216;-71
2021/08/14 05:42:41;;;;;;;6.03;4.70;;;20.50;99.90;;;;;;5028479;28;20291;-71
2021/08/14 05:45:10;;;;;;;6.13;4.77;;;20.40;99.90;;;;;;5028307;28;20209;-72
2021/08/14 05:47:37;;;;;;;5.90;5.30;;;20.50;99.90;;;;;;5028203;28;20231;-72
2021/08/14 05:50:04;;;;;;;6.67;4.53;;;20.60;99.90;;;;;;5028408;28;20659;-72
2021/08/14 05:52:30;;;;;;;5.07;4.67;;;20.40;99.90;;;;;;5028666;28;20258;-72
2021/08/14 05:54:59;;;;;;;8.30;5.57;;;20.20;99.90;;;;;;5028263;28;20200;-72
2021/08/14 05:57:25;;;;;;;6.27;5.60;;;20.00;99.90;;;;;;5028359;28;20201;-72
2021/08/14 05:59:52;;;;;;;5.17;4.70;;;20.20;99.90;;;;;;5027720;28;20268;-72
2021/08/14 06:02:20;;;;;;;5.53;5.03;;;20.00;99.90;;;;;;5028203;28;20672;-72
2021/08/14 06:04:47;;;;;;;8.67;5.77;;;20.20;99.90;;;;;;5027995;28;20254;-72
2021/08/14 06:07:13;;;;;;;6.43;4.57;;;20.40;99.90;;;;;;5028384;28;20262;-71
2021/08/14 06:09:40;;;;;;;5.10;4.23;;;20.40;99.90;;;;;;5028148;28;20233;-70
2021/08/14 06:12:07;;;;;;;10.17;3.90;;;20.40;99.90;;;;;;5027833;28;20271;-72
2021/08/14 06:14:34;;;;;;;6.33;4.60;;;20.50;99.90;;;;;;5028237;28;21039;-73
2021/08/14 06:17:01;;;;;;;5.30;3.73;;;20.40;99.90;;;;;;5028251;28;20201;-73
2021/08/14 06:19:29;;;;;;;5.93;4.20;;;20.40;99.90;;;;;;5028211;28;20205;-73
2021/08/14 06:21:56;;;;;;;10.50;4.47;;;20.30;99.90;;;;;;5027694;28;20243;-73
2021/08/14 06:24:23;;;;;;;4.40;4.00;;;20.60;99.90;;;;;;5028179;28;20259;-72
2021/08/14 06:26:52;;;;;;;10.80;4.20;;;20.70;99.90;;;;;;5028107;28;20205;-73
2021/08/14 06:29:19;;;;;;;5.73;3.63;;;20.90;99.90;;;;;;5028307;28;20633;-73
2021/08/14 06:31:45;;;;;;;5.77;3.83;;;20.80;99.90;;;;;;5028375;28;20212;-71
2021/08/14 06:34:12;;;;;;;5.17;3.67;;;20.80;99.90;;;;;;5027727;28;20618;-71
2021/08/14 06:36:40;;;;;;;3.90;3.50;;;20.60;99.90;;;;;;5028245;28;20237;-70
2021/08/14 06:39:06;;;;;;;5.97;3.50;;;20.70;99.90;;;;;;5027560;28;20542;-70
2021/08/14 06:41:33;;;;;;;6.83;4.40;;;20.60;99.90;;;;;;5027978;28;20225;-70
2021/08/14 06:44:00;;;;;;;6.47;3.33;;;20.70;99.90;;;;;;5027411;28;20243;-70
2021/08/14 06:46:26;;;;;;;5.93;3.60;;;20.80;99.90;;;;;;5027783;28;20283;-70
2021/08/14 06:48:53;;;;;;;5.53;3.60;;;20.70;99.90;;;;;;5027461;28;20674;-70
2021/08/14 06:51:19;;;;;;;6.17;3.70;;;20.80;99.90;;;;;;5027723;28;20258;-70
2021/08/14 06:53:48;;;;;;;5.57;3.80;;;20.70;99.90;;;;;;5030755;28;20613;-71
2021/08/14 06:56:15;;;;;;;5.50;3.63;;;20.70;99.90;;;;;;5030998;28;20679;-71
2021/08/14 06:58:41;;;;;;;4.80;3.20;;;20.70;99.90;;;;;;5031124;28;20298;-71
2021/08/14 07:01:08;;;;;;;6.00;3.27;;;20.80;99.90;;;;;;5031224;28;20260;-71
2021/08/14 07:03:35;;;;;;;7.53;3.87;;;20.90;99.90;;;;;;5031144;28;20609;-71
2021/08/14 07:06:01;;;;;;;9.73;3.50;;;20.80;99.90;;;;;;5030976;28;20205;-72
2021/08/14 07:08:28;;;;;;;4.70;3.30;;;20.60;99.90;;;;;;5030874;28;20224;-71
2021/08/14 07:10:56;;;;;;;5.20;3.57;;;20.60;99.90;;;;;;5030975;28;20225;-72
2021/08/14 07:13:22;;;;;;;7.57;3.43;;;20.60;99.90;;;;;;5031194;28;20616;-72
2021/08/14 07:15:49;;;;;;;10.17;4.40;;;20.50;99.90;;;;;;5031124;28;20209;-71
2021/08/14 07:18:16;;;;;;;4.97;3.13;;;20.60;99.90;;;;;;5031111;28;20208;-72
2021/08/14 07:20:42;;;;;;;4.63;2.97;;;20.60;99.90;;;;;;5030881;28;20208;-72
2021/08/14 07:23:09;;;;;;;5.83;2.90;;;20.60;99.90;;;;;;5030849;28;20341;-70
2021/08/14 07:25:35;;;;;;;5.93;2.97;;;20.70;99.90;;;;;;5030962;28;20205;-71
2021/08/14 07:28:04;;;;;;;6.70;3.53;;;20.60;99.90;;;;;;5030691;28;20266;-71
2021/08/14 07:30:30;;;;;;;8.37;3.80;;;20.70;99.90;;;;;;5030427;28;20577;-71
2021/08/14 07:32:57;;;;;;;8.33;3.70;;;20.70;99.90;;;;;;5030163;28;20675;-70
2021/08/14 07:35:24;;;;;;;9.87;3.80;;;20.70;99.90;;;;;;5030650;28;20204;-71
2021/08/14 07:37:52;;;;;;;6.70;3.27;;;20.80;99.90;;;;;;5030506;28;20801;-71
2021/08/14 07:40:19;;;;;;;7.00;3.40;;;20.90;99.90;;;;;;5030612;28;20217;-71
2021/08/14 07:42:46;;;;;;;9.10;3.43;;;20.90;99.90;;;;;;5030376;28;20231;-71
2021/08/14 07:45:17;;;;;;;4.27;3.10;;;21.10;99.90;;;;;;5030283;28;20616;-71
2021/08/14 07:47:47;;;;;;;9.30;3.30;;;21.10;99.90;;;;;;5030689;28;20282;-71
2021/08/14 07:50:17;;;;;;;5.80;3.13;;;21.30;99.90;;;;;;5038532;28;20197;-70
2021/08/14 07:52:43;;;;;;;10.07;3.10;;;21.40;99.90;;;;;;5040147;28;20200;-70
2021/08/14 07:55:11;;;;;;;5.67;3.17;;;21.40;99.90;;;;;;5040380;28;20660;-71
2021/08/14 07:57:39;;;;;;;7.83;3.43;;;21.40;99.90;;;;;;5041076;28;20258;-71
2021/08/14 08:00:08;;;;;;;6.20;2.97;;;21.50;99.90;;;;;;5039655;28;20232;-68
2021/08/14 08:02:36;;;;;;;9.10;3.57;;;21.60;99.90;;;;;;5040916;28;20232;-69
2021/08/14 08:05:03;;;;;;;7.53;2.70;;;21.50;99.90;;;;;;5040852;28;20262;-69
2021/08/14 08:07:30;;;;;;;6.27;3.33;;;21.60;99.90;;;;;;5041364;28;20196;-69
2021/08/14 08:09:57;;;;;;;7.17;3.37;;;21.50;99.90;;;;;;5038375;28;20262;-69
2021/08/14 08:12:23;;;;;;;8.17;3.40;;;21.50;99.90;;;;;;5039687;28;20253;-68
2021/08/14 08:14:50;;;;;;;4.87;3.13;;;21.50;99.90;;;;;;5037891;28;20201;-71
2021/08/14 08:17:17;;;;;;;6.23;3.50;;;21.60;99.90;;;;;;5028669;28;20267;-71
2021/08/14 08:19:45;;;;;;;9.03;3.40;;;21.60;99.90;;;;;;5026250;28;20208;-70
2021/08/14 08:22:11;;;;;;;5.93;3.27;;;21.60;99.90;;;;;;5025789;28;20695;-70
2021/08/14 08:24:38;;;;;;;6.40;3.37;;;21.70;99.90;;;;;;5026066;28;20213;-71
2021/08/14 08:27:05;;;;;;;5.20;2.80;;;21.80;99.90;;;;;;5036421;28;20544;-71
2021/08/14 08:29:32;;;;;;;6.13;3.20;;;21.80;99.90;;;;;;5036924;28;20250;-70
2021/08/14 08:31:58;;;;;;;5.30;2.80;;;21.90;99.90;;;;;;5040460;28;20204;-70
2021/08/14 08:34:25;;;;;;;5.40;3.33;;;21.90;99.90;;;;;;5031920;28;20306;-70
2021/08/14 08:36:54;;;;;;;5.47;3.60;;;22.00;99.90;;;;;;5037907;28;20262;-70
2021/08/14 08:39:21;;;;;;;6.77;3.00;;;22.20;99.90;;;;;;5032385;28;20216;-73
2021/08/14 08:41:47;;;;;;;6.47;4.10;;;22.30;99.90;;;;;;5025791;28;20224;-73
2021/08/14 08:44:14;;;;;;;6.47;3.05;;;22.40;99.90;;;;;;5030291;28;20328;-73
2021/08/14 08:46:41;;;;;;;6.53;3.40;;;22.60;99.90;;;;;;5036932;28;20216;-70
2021/08/14 08:49:08;;;;;;;8.13;3.10;;;22.50;99.90;;;;;;5035876;28;20291;-70
2021/08/14 08:51:35;;;;;;;7.43;6.05;;;22.50;99.90;;;;;;5028168;28;20208;-70
2021/08/14 08:54:03;;;;;;;9.40;6.10;;;22.60;99.90;;;;;;5025535;28;20442;-70
2021/08/14 08:56:30;;;;;;;4.68;3.08;;;22.70;99.90;;;;;;5028005;28;20290;-70
2021/08/14 08:58:56;;;;;;;5.18;3.00;;;22.70;99.90;;;;;;5024915;28;20244;-70
2021/08/14 09:01:23;;;;;;;6.35;3.58;;;22.70;99.90;;;;;;5025536;28;20216;-70
2021/08/14 09:03:50;;;;;;;6.47;3.20;;;22.70;99.60;;;;;;5028387;28;20196;-71
2021/08/14 09:06:19;;;;;;;9.35;3.70;;;22.80;99.50;;;;;;5034414;28;20244;-71
2021/08/14 09:09:11;;;;;;;8.77;3.22;;;22.90;99.70;;;;;;5028773;28;20220;-71
2021/08/14 09:11:48;;;;;;;4.95;3.58;;;23.10;99.70;;;;;;5028560;28;20703;-70
2021/08/14 09:14:14;;;;;;;4.80;2.90;;;23.20;98.70;;;;;;5027866;28;20659;-70
2021/08/14 09:16:41;;;;;;;4.80;2.92;;;23.20;99.00;;;;;;5028484;28;20209;-71
2021/08/14 09:19:08;;;;;;;5.15;2.80;;;23.20;98.40;;;;;;5028274;28;20667;-70
2021/08/14 09:21:37;;;;;;;5.32;3.22;;;23.20;98.70;;;;;;5028523;28;20212;-70
2021/08/14 09:24:05;;;;;;;5.88;2.92;;;23.20;99.30;;;;;;5028570;28;20270;-70
2021/08/14 09:26:57;;;;;;;4.88;2.97;;;23.20;98.70;;;;;;5028678;28;20671;-70
2021/08/14 09:29:33;;;;;;;5.15;3.30;;;23.30;98.70;;;;;;5028761;28;20297;-70
2021/08/14 09:32:01;;;;;;;4.97;3.72;;;23.40;98.50;;;;;;5028149;28;20243;-70
2021/08/14 09:34:28;;;;;;;6.45;3.33;;;23.40;98.50;;;;;;5028569;28;20217;-70
2021/08/14 09:37:02;;;;;;;7.78;3.20;;;23.40;98.10;;;;;;5028443;28;20205;-70
2021/08/14 09:39:30;;;;;;;7.00;3.22;;;23.30;98.30;;;;;;5028544;28;20227;-70
2021/08/14 09:42:04;;;;;;;8.75;3.13;;;23.30;98.40;;;;;;5028257;28;20637;-70
2021/08/14 09:44:33;;;;;;;6.88;3.30;;;23.40;97.90;;;;;;5028330;28;20200;-70
2021/08/14 09:47:00;;;;;;;5.55;3.13;;;23.60;97.80;;;;;;5028057;28;20229;-70
2021/08/14 09:49:26;;;;;;;4.97;2.90;;;23.60;96.90;;;;;;5028375;28;20212;-70
2021/08/14 09:51:53;;;;;;;4.03;3.08;;;23.60;96.60;;;;;;5028091;28;20667;-70
2021/08/14 09:54:21;;;;;;;6.32;3.05;;;23.50;96.90;;;;;;5028382;28;20205;-70
2021/08/14 09:56:48;;;;;;;4.32;2.75;;;23.50;97.50;;;;;;5028249;28;20204;-70
2021/08/14 09:59:17;;;;;;;5.45;2.92;;;23.40;97.40;;;;;;5027634;28;20302;-70
2021/08/14 10:01:46;;;;;;;4.72;3.08;;;23.50;98.00;;;;;;5028298;28;20205;-70
2021/08/14 10:04:13;;;;;;;4.93;3.22;;;23.60;97.30;;;;;;5027753;28;20200;-70
2021/08/14 10:06:40;;;;;;;5.28;3.38;;;23.60;97.70;;;;;;5027747;28;20255;-70
2021/08/14 10:09:07;;;;;;;7.10;3.15;;;23.60;97.30;;;;;;5027828;28;20306;-70
2021/08/14 10:11:35;;;;;;;6.28;3.28;;;23.70;97.70;;;;;;5027990;28;20236;-70
2021/08/14 10:14:02;;;;;;;5.10;2.80;;;23.90;97.60;;;;;;5027700;28;20671;-70
2021/08/14 10:16:29;;;;;;;5.35;2.92;;;24.00;96.70;;;;;;5027822;28;20725;-70
2021/08/14 10:18:58;;;;;;;5.43;2.72;;;24.00;97.00;;;;;;5027910;28;20209;-70
2021/08/14 10:21:26;;;;;;;5.35;2.95;;;24.20;97.40;;;;;;5027310;28;20240;-70
2021/08/14 10:23:56;;;;;;;5.35;3.03;;;24.30;96.50;;;;;;5027942;28;20241;-71
2021/08/14 10:26:27;;;;;;;4.80;2.75;;;24.40;97.00;;;;;;5028017;28;20208;-71
2021/08/14 10:28:55;;;;;;;5.90;3.28;;;24.40;96.50;;;;;;5031928;28;20219;-71
2021/08/14 10:31:47;;;;;;;4.47;3.03;;;24.50;96.60;;;;;;5032065;28;20209;-70
2021/08/14 10:34:39;;;;;;;3.67;2.60;;;24.50;97.00;;;;;;5031584;28;20729;-70
2021/08/14 10:37:34;;;;;;;4.47;2.97;;;24.60;96.50;;;;;;5016774;28;20209;-70
2021/08/14 10:40:00;;;;;;;5.15;2.70;;;24.80;96.60;;;;;;5031742;28;20284;-70
2021/08/14 10:42:57;;;;;;;6.50;2.85;;;25.00;96.20;;;;;;5035541;28;20309;-70
2021/08/14 10:45:32;;;;;;;5.97;3.08;;;25.20;94.60;;;;;;5030375;28;20776;-70
2021/08/14 10:48:04;;;;;;;3.92;2.92;;;25.10;95.10;;;;;;5030680;28;20603;-70
2021/08/14 10:50:54;;;;;;;3.33;2.65;;;25.00;94.80;;;;;;5030804;28;21039;-70
2021/08/14 10:53:22;;;;;;;7.07;2.90;;;24.80;94.30;;;;;;5035646;28;20685;-70
2021/08/14 10:55:51;;;;;;;3.05;2.47;;;24.80;94.20;;;;;;5039579;28;20200;-71
2021/08/14 10:58:22;;;;;;;3.13;2.55;;;25.00;94.40;;;;;;5039785;28;20200;-72
2021/08/14 11:00:49;;;;;;;4.28;3.03;;;25.00;94.20;;;;;;5041482;28;20185;-72
2021/08/14 11:03:18;;;;;;;4.15;2.85;;;25.00;94.20;;;;;;5040202;28;20290;-71
2021/08/14 11:05:46;;;;;;;3.83;2.83;;;25.10;94.10;;;;;;5039216;28;20236;-71
2021/08/14 11:08:25;;;;;;;3.92;2.58;;;25.20;94.30;;;;;;5038660;28;20275;-70
2021/08/14 11:10:52;;;;;;;4.80;3.20;;;25.40;94.40;;;;;;5029961;28;20844;-71
2021/08/14 11:13:42;;;;;;;3.70;2.85;;;25.60;93.80;;;;;;5033521;28;20208;-71
2021/08/14 11:16:09;;;;;;;2.40;2.20;;;25.90;91.70;;;;;;5029798;28;20248;-72
2021/08/14 11:18:50;;;;;;;4.20;3.60;;;25.70;92.30;;;;;;5037507;28;20276;-71
2021/08/14 11:21:17;;;;;;;3.70;3.13;;;25.80;92.40;;;;;;5029508;28;20223;-71
2021/08/14 11:23:59;;;;;;;3.90;2.97;;;26.10;92.70;;;;;;5027006;28;20286;-70
2021/08/14 11:26:33;;;;;;;5.13;2.88;;;26.40;92.10;;;;;;5026841;28;20750;-71
2021/08/14 11:29:01;;;;;;;4.70;2.55;;;26.70;92.40;;;;;;5026148;28;20663;-71
2021/08/14 11:31:29;;;;;;;4.78;4.28;;;26.80;91.10;;;;;;5026939;28;20903;-71
2021/08/14 11:34:01;;;;;;;3.42;3.13;;;26.90;90.20;;;;;;5027092;28;20221;-71
2021/08/14 11:36:28;;;;;;;5.97;2.85;;;26.70;90.00;;;;;;5027453;28;20445;-71
2021/08/14 11:39:01;;;;;;;2.65;2.45;;;26.80;90.10;;;;;;5026835;28;20219;-71
2021/08/14 11:41:28;;;;;;;4.53;2.60;;;26.60;90.60;;;;;;5026894;28;20500;-71
2021/08/14 11:44:00;;;;;;;3.40;2.70;;;26.60;90.30;;;;;;5026583;28;20299;-72
2021/08/14 11:46:27;;;;;;;4.75;2.60;;;26.70;90.40;;;;;;5026765;28;20260;-72
2021/08/14 11:48:54;;;;;;;2.85;2.65;;;26.70;90.70;;;;;;5026877;28;20201;-71
2021/08/14 11:51:22;;;;;;;4.10;2.80;;;26.80;90.40;;;;;;5026888;28;20555;-71
2021/08/14 11:53:49;;;;;;;4.82;2.67;;;26.50;90.50;;;;;;5027209;28;20252;-71
2021/08/14 11:56:19;;;;;;;4.95;2.72;;;26.40;90.80;;;;;;5026245;28;20749;-71
2021/08/14 11:58:46;;;;;;;3.13;2.83;;;26.50;91.00;;;;;;5026257;28;20249;-71
2021/08/14 12:01:13;;;;;;;4.72;2.85;;;26.40;90.90;;;;;;5026663;28;20603;-71
2021/08/14 12:03:40;;;;;;;3.97;2.53;;;26.50;90.50;;;;;;5026519;28;20320;-71
2021/08/14 12:06:08;;;;;;;4.43;2.80;;;26.70;91.10;;;;;;5026479;28;20618;-71
2021/08/14 12:08:36;;;;;;;9.18;4.82;;;26.70;90.50;;;;;;5026377;28;20719;-71
2021/08/14 12:11:05;;;;;;;4.70;3.33;;;26.70;89.90;;;;;;5026106;28;20282;-71
2021/08/14 12:13:34;;;;;;;5.57;3.83;;;26.90;90.80;;;;;;5026546;28;20240;-71
2021/08/14 12:16:15;;;;;;;3.55;3.15;;;26.90;90.50;;;;;;5026153;28;20571;-71
2021/08/14 12:18:43;;;;;;;5.55;3.20;;;27.10;90.30;;;;;;5026374;28;20232;-71
2021/08/14 12:21:12;;;;;;;4.60;2.85;;;27.10;89.00;;;;;;5026147;28;20209;-71
2021/08/14 12:23:40;;;;;;;7.88;5.00;;;27.20;88.80;;;;;;5026013;28;20233;-71
2021/08/14 12:26:09;;;;;;;6.93;3.58;;;27.10;90.00;;;;;;5026158;28;20213;-71
2021/08/14 12:28:39;;;;;;;4.95;3.03;;;27.20;88.70;;;;;;5026036;28;20730;-72
2021/08/14 12:31:16;;;;;;;4.75;3.78;;;27.30;89.40;;;;;;5025749;28;20695;-71
2021/08/14 12:33:51;;;;;;;5.72;3.10;;;27.60;89.10;;;;;;5026126;28;20659;-71
2021/08/14 12:36:33;;;;;;;6.95;2.90;;;27.60;88.20;;;;;;5026047;28;20197;-71
2021/08/14 12:39:00;;;;;;;4.20;3.30;;;27.40;88.90;;;;;;5025908;28;20312;-71
2021/08/14 12:41:35;;;;;;;3.90;3.05;;;27.70;89.40;;;;;;5025745;28;20667;-71
2021/08/14 12:44:04;;;;;;;3.88;2.97;;;28.00;89.50;;;;;;5025652;28;20591;-71
2021/08/14 12:46:31;;;;;;;4.57;4.18;;;27.80;89.50;;;;;;5025928;28;20283;-71
2021/08/14 12:49:18;;;;;;;4.57;2.95;;;27.60;89.80;;;;;;5025837;28;20267;-71
2021/08/14 12:51:54;;;;;;;5.22;3.40;;;27.70;89.90;;;;;;5025520;28;20291;-71